Time;durP1;ratioP1;P1;durP2;ratioP2;P2;SDS_P1;SDS_P2;PMS_P1;PMS_P2;Temp;Humidity;BMP_temperature;BMP_pressure;BME280_temperature;BME280_humidity;BME280_pressure;Samples;Min_cycle;Max_cycle;Signal;HPM_P1;HPM_P2
2022/06/13 00:00:26;;;;;;;4.63;1.20;;;22.20;99.90;;;;;;5032737;28;20469;-85
2022/06/13 00:02:52;;;;;;;5.18;1.30;;;22.20;99.90;;;;;;5032833;28;20037;-84
2022/06/13 00:05:18;;;;;;;3.33;1.67;;;22.20;99.90;;;;;;5015554;28;20021;-85
2022/06/13 00:07:44;;;;;;;3.05;1.63;;;22.20;99.90;;;;;;5015023;28;20072;-84
2022/06/13 00:10:11;;;;;;;1.92;1.27;;;22.20;99.90;;;;;;5015000;28;20437;-84
2022/06/13 00:12:41;;;;;;;2.15;1.20;;;22.20;99.90;;;;;;5016140;28;20457;-84
2022/06/13 00:15:09;;;;;;;2.45;1.40;;;22.20;99.90;;;;;;5014973;28;20061;-84
2022/06/13 00:17:34;;;;;;;2.20;1.30;;;22.10;99.90;;;;;;5014862;28;20048;-85
2022/06/13 00:20:00;;;;;;;4.25;1.60;;;22.10;99.90;;;;;;5017866;28;20022;-84
2022/06/13 00:22:26;;;;;;;4.88;1.40;;;22.10;99.90;;;;;;5018410;28;20068;-84
2022/06/13 00:24:52;;;;;;;4.38;1.50;;;22.10;99.90;;;;;;5036170;28;20056;-84
2022/06/13 00:27:17;;;;;;;7.03;1.70;;;22.10;99.90;;;;;;5018323;28;20499;-84
2022/06/13 00:29:47;;;;;;;5.32;1.50;;;22.10;99.90;;;;;;5018307;28;20017;-85
2022/06/13 00:32:13;;;;;;;2.80;1.58;;;22.10;99.90;;;;;;5019036;28;20044;-85
2022/06/13 00:34:39;;;;;;;3.30;1.38;;;22.10;99.90;;;;;;5035965;28;20416;-84
2022/06/13 00:37:05;;;;;;;5.30;1.60;;;22.10;99.90;;;;;;5017997;28;20056;-84
2022/06/13 00:39:30;;;;;;;2.60;1.50;;;22.00;99.90;;;;;;5018172;28;20068;-84
2022/06/13 00:41:56;;;;;;;3.45;1.40;;;22.00;99.90;;;;;;5036089;28;20030;-84
2022/06/13 00:44:30;;;;;;;2.80;1.20;;;22.00;99.90;;;;;;5018330;28;20116;-84
2022/06/13 00:46:56;;;;;;;4.05;1.30;;;22.00;99.90;;;;;;5035758;28;20033;-84
2022/06/13 00:49:44;;;;;;;4.10;1.45;;;22.00;99.90;;;;;;5018179;28;20034;-84
2022/06/13 00:52:23;;;;;;;3.25;1.20;;;22.00;99.90;;;;;;5018147;28;20103;-84
2022/06/13 00:54:52;;;;;;;4.10;1.35;;;22.00;99.90;;;;;;5036182;28;20025;-84
2022/06/13 00:57:23;;;;;;;3.53;1.33;;;22.00;99.90;;;;;;5035531;28;20485;-84
2022/06/13 00:59:54;;;;;;;2.38;1.35;;;22.00;99.90;;;;;;5018334;28;20108;-84
2022/06/13 01:02:21;;;;;;;2.13;1.20;;;22.00;99.90;;;;;;5018256;28;20026;-84
2022/06/13 01:04:50;;;;;;;2.97;1.23;;;22.00;99.90;;;;;;5017636;28;20049;-84
2022/06/13 01:07:16;;;;;;;3.75;1.10;;;22.00;99.90;;;;;;5017579;28;20024;-84
2022/06/13 01:12:29;;;;;;;4.70;1.20;;;22.00;99.90;;;;;;5035838;28;20099;-84
2022/06/13 01:15:13;;;;;;;1.63;1.05;;;21.90;99.90;;;;;;5017780;28;20112;-84
2022/06/13 01:18:00;;;;;;;1.92;1.17;;;21.90;99.90;;;;;;5018220;28;20032;-84
2022/06/13 01:20:45;;;;;;;2.95;1.38;;;21.90;99.90;;;;;;5017378;28;20029;-84
2022/06/13 01:23:35;;;;;;;2.38;1.30;;;21.90;99.90;;;;;;5017397;28;20589;-84
2022/06/13 01:26:07;;;;;;;4.93;1.20;;;21.90;99.90;;;;;;5035015;28;20040;-84
2022/06/13 01:28:51;;;;;;;3.53;1.30;;;21.90;99.90;;;;;;5017470;28;20060;-84
2022/06/13 01:31:20;;;;;;;3.97;1.33;;;21.90;99.90;;;;;;5017057;28;20116;-84
2022/06/13 01:33:46;;;;;;;2.65;1.10;;;21.90;99.90;;;;;;5017367;28;20026;-84
2022/06/13 01:36:30;;;;;;;1.88;0.98;;;21.90;99.90;;;;;;5017120;28;20036;-84
2022/06/13 01:38:56;;;;;;;;;;;21.80;99.90;;;;;;5033593;28;20072;-84
2022/06/13 01:41:42;;;;;;;3.05;1.10;;;21.80;99.90;;;;;;5036736;28;19905;-84
2022/06/13 01:44:31;;;;;;;4.18;1.05;;;21.80;99.90;;;;;;5037232;28;20025;-84
2022/06/13 01:47:18;;;;;;;1.98;1.13;;;21.80;99.90;;;;;;5026060;28;20041;-84
2022/06/13 01:49:59;;;;;;;1.90;1.25;;;21.80;99.90;;;;;;5036961;28;20029;-84
2022/06/13 01:52:29;;;;;;;3.55;1.48;;;21.80;99.90;;;;;;5037387;28;20029;-84
2022/06/13 01:55:02;;;;;;;3.45;1.35;;;21.80;99.90;;;;;;5037597;28;20042;-84
2022/06/13 01:57:50;;;;;;;3.42;1.38;;;21.80;99.90;;;;;;5036536;28;20046;-84
2022/06/13 02:00:26;;;;;;;1.92;1.27;;;21.80;99.90;;;;;;5036315;28;20025;-84
2022/06/13 02:02:52;;;;;;;5.80;1.30;;;21.80;99.90;;;;;;5036396;28;20400;-84
2022/06/13 02:05:21;;;;;;;4.30;1.15;;;21.80;99.90;;;;;;5036285;28;20021;-84
2022/06/13 02:07:53;;;;;;;4.22;1.10;;;21.80;99.90;;;;;;5054364;28;20025;-84
2022/06/13 02:10:26;;;;;;;3.33;1.20;;;21.70;99.90;;;;;;5036170;28;20028;-84
2022/06/13 02:13:00;;;;;;;1.90;1.05;;;21.70;99.90;;;;;;5036176;28;20032;-84
2022/06/13 02:15:30;;;;;;;3.53;1.13;;;21.70;99.90;;;;;;5054016;28;20025;-84
2022/06/13 02:18:02;;;;;;;3.47;1.13;;;21.70;99.90;;;;;;5036047;28;20028;-84
2022/06/13 02:20:36;;;;;;;2.00;1.02;;;21.70;99.90;;;;;;5036035;28;20404;-84
2022/06/13 02:23:06;;;;;;;;;;;21.70;99.90;;;;;;5036443;28;20120;-84
2022/06/13 02:25:43;;;;;;;3.78;1.10;;;21.80;99.90;;;;;;5054355;28;19908;-84
2022/06/13 02:28:21;;;;;;;2.25;1.00;;;21.70;99.90;;;;;;5054400;28;20033;-84
2022/06/13 02:30:54;;;;;;;3.35;1.55;;;21.70;99.90;;;;;;5053710;28;20017;-84
2022/06/13 02:33:40;;;;;;;3.75;1.10;;;21.70;99.90;;;;;;5035903;28;20102;-84
2022/06/13 02:36:13;;;;;;;1.60;1.20;;;21.70;99.90;;;;;;5035789;28;20055;-84
2022/06/13 02:38:50;;;;;;;2.13;1.25;;;21.70;99.90;;;;;;5039477;28;20496;-84
2022/06/13 02:41:20;;;;;;;4.18;1.00;;;21.70;99.90;;;;;;5015765;28;20039;-84
2022/06/13 02:44:04;;;;;;;3.17;1.00;;;21.70;99.90;;;;;;5015917;28;20029;-83
2022/06/13 02:46:46;;;;;;;2.25;1.15;;;21.70;99.90;;;;;;5015955;28;20026;-84
2022/06/13 02:49:21;;;;;;;1.65;1.10;;;21.70;99.90;;;;;;5033599;28;20034;-84
2022/06/13 02:51:59;;;;;;;2.58;0.90;;;21.70;99.90;;;;;;5015823;28;20116;-84
2022/06/13 02:54:28;;;;;;;4.68;1.48;;;21.60;99.90;;;;;;5015833;28;20072;-84
2022/06/13 02:57:25;;;;;;;3.97;1.05;;;21.60;99.90;;;;;;5015654;28;20026;-84
2022/06/13 03:00:03;;;;;;;2.85;1.10;;;21.60;99.90;;;;;;5015662;28;20028;-84
2022/06/13 03:02:46;;;;;;;3.10;1.40;;;21.60;99.90;;;;;;5015670;28;20025;-84
2022/06/13 03:05:15;;;;;;;5.07;1.35;;;21.60;99.90;;;;;;5033368;28;20034;-84
2022/06/13 03:08:13;;;;;;;2.10;1.10;;;21.60;99.90;;;;;;5015618;28;20388;-84
2022/06/13 03:11:01;;;;;;;2.67;1.27;;;21.60;99.90;;;;;;4978577;28;20044;-84
2022/06/13 03:13:43;;;;;;;3.40;1.20;;;21.60;99.90;;;;;;5015578;28;20026;-84
2022/06/13 03:16:12;;;;;;;2.65;1.08;;;21.60;99.90;;;;;;5033566;28;20022;-84
2022/06/13 03:18:47;;;;;;;3.97;1.20;;;21.60;99.90;;;;;;5015535;28;20033;-84
2022/06/13 03:21:19;;;;;;;2.75;1.10;;;21.50;99.90;;;;;;5015485;28;20392;-84
2022/06/13 03:24:00;;;;;;;2.15;0.93;;;21.60;99.90;;;;;;5015479;28;20099;-84
2022/06/13 03:26:37;;;;;;;3.58;1.20;;;21.60;99.90;;;;;;5033146;28;20388;-84
2022/06/13 03:29:13;;;;;;;2.78;1.30;;;21.50;99.90;;;;;;5015430;28;20116;-84
2022/06/13 03:31:46;;;;;;;1.75;1.08;;;21.50;99.90;;;;;;5015369;28;20065;-84
2022/06/13 03:34:20;;;;;;;6.32;1.35;;;21.50;99.90;;;;;;5033393;28;20547;-84
2022/06/13 03:36:49;;;;;;;3.00;1.30;;;21.50;99.90;;;;;;5033106;28;20021;-83
2022/06/13 03:39:22;;;;;;;2.50;1.15;;;21.50;99.90;;;;;;5032884;28;20041;-84
2022/06/13 03:42:11;;;;;;;3.97;1.10;;;21.50;99.90;;;;;;5015350;28;20116;-84
2022/06/13 03:44:56;;;;;;;5.60;1.40;;;21.40;99.90;;;;;;5014369;28;20037;-84
2022/06/13 03:47:45;;;;;;;2.72;1.20;;;21.40;99.90;;;;;;5032998;28;20493;-84
2022/06/13 03:50:45;;;;;;;1.92;1.00;;;21.40;99.90;;;;;;5015154;28;20053;-84
2022/06/13 03:53:29;;;;;;;2.85;1.10;;;21.40;99.90;;;;;;5001247;28;20393;-84
2022/06/13 03:56:05;;;;;;;2.83;1.20;;;21.40;99.90;;;;;;5018970;28;20021;-83
2022/06/13 03:58:35;;;;;;;2.53;1.13;;;21.40;99.90;;;;;;5036656;28;20033;-83
2022/06/13 04:01:22;;;;;;;6.55;1.30;;;21.40;99.90;;;;;;5036527;28;20029;-84
2022/06/13 04:03:48;;;;;;;3.83;1.38;;;21.40;99.90;;;;;;5018895;28;20025;-83
2022/06/13 04:06:31;;;;;;;7.18;1.33;;;21.40;99.90;;;;;;5018726;28;20036;-84
2022/06/13 04:09:00;;;;;;;3.45;1.35;;;21.40;99.90;;;;;;5036790;28;20048;-83
2022/06/13 04:11:52;;;;;;;5.97;1.60;;;21.40;99.90;;;;;;5036328;28;20029;-83
2022/06/13 04:14:46;;;;;;;4.60;1.40;;;21.40;99.90;;;;;;5018871;28;20496;-83
2022/06/13 04:17:38;;;;;;;7.32;1.20;;;21.40;99.90;;;;;;5036293;28;20029;-83
2022/06/13 04:20:39;;;;;;;5.68;1.42;;;21.40;99.90;;;;;;5018550;28;20354;-83
2022/06/13 04:23:24;;;;;;;4.20;1.40;;;21.40;99.90;;;;;;5035587;28;20034;-84
2022/06/13 04:26:28;;;;;;;4.68;1.20;;;21.40;99.90;;;;;;5036211;28;20477;-83
2022/06/13 04:29:07;;;;;;;6.35;1.55;;;21.30;99.90;;;;;;5005958;28;20028;-84
2022/06/13 04:31:35;;;;;;;7.93;1.63;;;21.30;99.90;;;;;;5036008;28;20025;-83
2022/06/13 04:34:30;;;;;;;4.00;1.50;;;21.30;99.90;;;;;;5036024;28;20026;-83
2022/06/13 04:36:58;;;;;;;5.63;1.30;;;21.30;99.90;;;;;;5033711;28;20040;-83
2022/06/13 04:39:29;;;;;;;4.93;1.30;;;21.30;99.90;;;;;;5034644;28;20045;-83
2022/06/13 04:41:57;;;;;;;4.97;1.80;;;21.30;99.90;;;;;;5034715;28;20025;-83
2022/06/13 04:44:26;;;;;;;5.60;1.58;;;21.30;99.90;;;;;;5036086;28;20036;-83
2022/06/13 04:46:54;;;;;;;8.30;1.83;;;21.30;99.90;;;;;;5034562;28;20107;-83
2022/06/13 04:49:26;;;;;;;4.47;1.65;;;21.30;99.90;;;;;;5034474;28;20029;-83
2022/06/13 04:51:54;;;;;;;4.65;1.60;;;21.30;99.90;;;;;;5035594;28;20121;-83
2022/06/13 04:54:31;;;;;;;9.07;1.85;;;21.30;99.90;;;;;;5036174;28;20025;-83
2022/06/13 04:57:01;;;;;;;7.50;1.92;;;21.30;99.90;;;;;;5035660;28;20017;-83
2022/06/13 04:59:28;;;;;;;5.15;1.70;;;21.30;99.90;;;;;;5035660;28;20024;-83
2022/06/13 05:01:56;;;;;;;7.03;1.50;;;21.30;99.90;;;;;;5034257;28;20030;-83
2022/06/13 05:04:29;;;;;;;7.28;1.88;;;21.30;99.90;;;;;;5035537;28;20032;-83
2022/06/13 05:07:05;;;;;;;7.15;1.65;;;21.30;99.90;;;;;;5035753;28;20041;-83
2022/06/13 05:09:38;;;;;;;6.35;1.80;;;21.20;99.90;;;;;;5034150;28;20056;-83
2022/06/13 05:12:37;;;;;;;7.95;2.17;;;21.30;99.90;;;;;;5035328;28;20079;-84
2022/06/13 05:15:09;;;;;;;6.38;1.92;;;21.30;99.90;;;;;;5024299;28;20044;-83
2022/06/13 05:18:10;;;;;;;7.78;2.20;;;21.30;99.90;;;;;;5034004;28;20022;-84
2022/06/13 05:20:48;;;;;;;5.70;2.03;;;21.30;99.90;;;;;;4974159;28;20423;-83
2022/06/13 05:23:38;;;;;;;6.40;1.85;;;21.30;99.90;;;;;;5026766;28;20042;-84
2022/06/13 05:26:04;;;;;;;9.70;2.05;;;21.30;99.90;;;;;;5033816;28;20025;-83
2022/06/13 05:28:32;;;;;;;7.20;1.52;;;21.30;99.90;;;;;;5035003;28;20029;-83
2022/06/13 05:31:00;;;;;;;8.65;1.77;;;21.30;99.90;;;;;;5033606;28;20029;-83
2022/06/13 05:33:34;;;;;;;8.80;1.75;;;21.30;99.90;;;;;;5034890;28;20366;-83
2022/06/13 05:36:03;;;;;;;6.15;1.80;;;21.20;99.90;;;;;;5033620;28;20049;-83
2022/06/13 05:38:41;;;;;;;6.25;1.73;;;21.30;99.90;;;;;;5034635;28;20044;-83
2022/06/13 05:41:07;;;;;;;6.82;2.08;;;21.30;99.90;;;;;;5017006;28;20033;-83
2022/06/13 05:43:33;;;;;;;7.85;2.05;;;21.20;99.90;;;;;;5016921;28;20499;-83
2022/06/13 05:45:59;;;;;;;9.88;2.25;;;21.20;99.90;;;;;;5016921;28;20029;-83
2022/06/13 05:48:25;;;;;;;3.55;1.70;;;21.30;99.90;;;;;;5016828;28;20029;-83
2022/06/13 05:50:52;;;;;;;4.93;1.90;;;21.30;99.90;;;;;;5034471;28;20079;-83
2022/06/13 05:53:21;;;;;;;9.95;2.35;;;21.20;99.90;;;;;;5017304;28;20029;-83
2022/06/13 05:55:48;;;;;;;7.07;1.83;;;21.20;99.90;;;;;;5016692;28;20385;-83
2022/06/13 05:58:16;;;;;;;10.95;2.63;;;21.20;99.90;;;;;;5016590;28;20021;-83
2022/06/13 06:00:52;;;;;;;6.88;1.77;;;21.20;99.90;;;;;;5034256;28;20106;-83
2022/06/13 06:03:17;;;;;;;6.35;1.83;;;21.20;99.90;;;;;;5034619;28;20030;-83
2022/06/13 06:05:43;;;;;;;7.00;1.90;;;21.20;99.90;;;;;;5034516;28;20388;-83
2022/06/13 06:08:22;;;;;;;5.03;1.63;;;21.20;99.90;;;;;;5034294;28;20056;-83
2022/06/13 06:10:50;;;;;;;7.05;1.73;;;21.20;99.90;;;;;;5016648;28;20029;-83
2022/06/13 06:13:16;;;;;;;7.80;2.28;;;21.20;99.90;;;;;;5033993;28;20376;-83
2022/06/13 06:15:43;;;;;;;6.65;1.85;;;21.20;99.90;;;;;;5016153;28;20108;-83
2022/06/13 06:18:10;;;;;;;9.57;2.58;;;21.20;99.90;;;;;;5033747;28;20025;-84
2022/06/13 06:20:38;;;;;;;8.48;2.15;;;21.20;99.90;;;;;;5016761;28;20119;-83
2022/06/13 06:23:04;;;;;;;6.13;1.83;;;21.20;99.90;;;;;;5016161;28;20037;-83
2022/06/13 06:25:31;;;;;;;6.78;1.88;;;21.20;99.90;;;;;;5016215;28;20025;-83
2022/06/13 06:27:57;;;;;;;11.43;2.15;;;21.20;99.90;;;;;;5016054;28;20030;-83
2022/06/13 06:30:26;;;;;;;4.88;1.88;;;21.20;99.90;;;;;;5016037;28;20076;-83
2022/06/13 06:32:52;;;;;;;6.38;1.85;;;21.20;99.90;;;;;;5016083;28;20075;-83
2022/06/13 06:35:18;;;;;;;11.57;2.28;;;21.20;99.90;;;;;;5033768;28;20405;-83
2022/06/13 06:37:48;;;;;;;7.68;2.40;;;21.10;99.90;;;;;;5022026;28;20048;-83
2022/06/13 06:40:19;;;;;;;6.97;1.80;;;21.10;99.90;;;;;;5035706;28;20052;-83
2022/06/13 06:42:45;;;;;;;4.38;1.65;;;21.20;99.90;;;;;;5036257;28;20036;-83
2022/06/13 06:45:12;;;;;;;8.20;2.00;;;21.20;99.90;;;;;;5053784;28;20017;-83
2022/06/13 06:47:39;;;;;;;5.55;1.70;;;21.20;99.90;;;;;;5035559;28;20056;-83
2022/06/13 06:50:06;;;;;;;6.30;1.98;;;21.20;99.90;;;;;;5035804;28;20048;-83
2022/06/13 06:52:32;;;;;;;6.85;1.92;;;21.20;99.90;;;;;;5035451;28;20024;-83
2022/06/13 07:00:25;;;;;;;3.50;1.65;;;21.10;99.90;;;;;;5053396;28;20067;-83
2022/06/13 07:02:51;;;;;;;6.07;1.65;;;21.20;99.90;;;;;;5035342;28;20033;-83
2022/06/13 07:05:17;;;;;;;6.00;1.70;;;21.20;99.90;;;;;;5035409;28;20036;-83
2022/06/13 07:07:43;;;;;;;7.32;1.83;;;21.20;99.90;;;;;;5053203;28;20388;-83
2022/06/13 07:10:11;;;;;;;8.25;2.05;;;21.10;99.90;;;;;;5035300;28;20021;-83
2022/06/13 07:12:37;;;;;;;4.75;1.77;;;21.20;99.90;;;;;;5035259;28;20025;-83
2022/06/13 07:15:03;;;;;;;7.43;1.80;;;21.20;99.90;;;;;;5035212;28;20028;-84
2022/06/13 07:17:29;;;;;;;4.15;1.63;;;21.20;99.90;;;;;;5035209;28;20025;-83
2022/06/13 07:19:55;;;;;;;4.97;1.90;;;21.20;99.90;;;;;;5053127;28;20451;-83
2022/06/13 07:22:22;;;;;;;5.35;1.83;;;21.20;99.90;;;;;;5053313;28;20051;-83
2022/06/13 07:24:49;;;;;;;8.13;2.20;;;21.20;99.90;;;;;;5035153;28;20048;-83
2022/06/13 07:27:16;;;;;;;4.13;1.40;;;21.20;99.90;;;;;;5053013;28;20025;-83
2022/06/13 07:29:42;;;;;;;7.93;2.08;;;21.20;99.90;;;;;;5055957;28;20025;-83
2022/06/13 07:32:23;;;;;;;5.55;1.92;;;21.20;99.90;;;;;;5039083;28;20107;-83
2022/06/13 07:34:52;;;;;;;7.85;1.83;;;21.20;99.90;;;;;;5039443;28;20036;-83
2022/06/13 07:40:08;;;;;;;6.78;2.03;;;21.20;99.90;;;;;;5037321;28;20079;-83
2022/06/13 07:42:50;;;;;;;3.83;1.85;;;21.20;99.90;;;;;;5019653;28;20121;-83
2022/06/13 07:45:20;;;;;;;6.10;1.90;;;21.20;99.90;;;;;;5037210;28;20036;-83
2022/06/13 07:47:46;;;;;;;5.50;2.05;;;21.20;99.90;;;;;;5019108;28;20021;-83
2022/06/13 07:50:17;;;;;;;6.57;1.92;;;21.20;99.90;;;;;;5019009;28;20076;-83
2022/06/13 07:52:43;;;;;;;6.10;1.73;;;21.20;99.90;;;;;;5037069;28;20489;-82
2022/06/13 07:55:09;;;;;;;10.40;2.40;;;21.20;99.90;;;;;;5036739;28;20022;-83
2022/06/13 07:57:36;;;;;;;5.97;1.70;;;21.20;99.90;;;;;;5036697;28;20476;-83
2022/06/13 08:00:03;;;;;;;4.90;1.90;;;21.30;99.90;;;;;;5036831;28;20057;-83
2022/06/13 08:02:31;;;;;;;4.63;1.70;;;21.30;99.90;;;;;;5018810;28;20021;-83
2022/06/13 08:04:57;;;;;;;5.75;1.92;;;21.30;99.90;;;;;;5036573;28;20017;-83
2022/06/13 08:07:22;;;;;;;7.88;2.40;;;21.30;99.90;;;;;;5018787;28;20076;-83
2022/06/13 08:09:48;;;;;;;5.25;1.90;;;21.30;99.90;;;;;;5018699;28;20024;-83
2022/06/13 08:12:16;;;;;;;7.63;2.00;;;21.30;99.90;;;;;;5018634;28;20468;-83
2022/06/13 08:14:45;;;;;;;8.07;2.22;;;21.30;99.90;;;;;;5018443;28;20477;-83
2022/06/13 08:17:12;;;;;;;6.70;1.90;;;21.30;99.90;;;;;;5018589;28;20412;-83
2022/06/13 08:19:38;;;;;;;4.97;1.98;;;21.30;99.90;;;;;;5018519;28;20017;-83
2022/06/13 08:22:04;;;;;;;5.40;1.70;;;21.40;99.90;;;;;;5036258;28;20037;-83
2022/06/13 08:24:30;;;;;;;3.78;1.45;;;21.40;99.90;;;;;;5036227;28;20030;-83
2022/06/13 08:26:56;;;;;;;4.20;1.80;;;21.40;99.90;;;;;;5018447;28;20031;-83
2022/06/13 08:29:21;;;;;;;8.70;1.88;;;21.40;99.90;;;;;;5018314;28;20071;-83
2022/06/13 08:31:47;;;;;;;5.72;1.70;;;21.40;99.90;;;;;;5018240;28;20025;-83
2022/06/13 08:34:13;;;;;;;6.50;1.83;;;21.50;99.90;;;;;;5018271;28;20026;-83
2022/06/13 08:36:38;;;;;;;5.75;1.70;;;21.50;99.90;;;;;;5035948;28;20025;-83
2022/06/13 08:39:04;;;;;;;5.07;1.73;;;21.50;99.90;;;;;;5033786;28;20045;-83
2022/06/13 08:41:46;;;;;;;5.50;1.92;;;21.50;99.90;;;;;;5054633;28;20063;-83
2022/06/13 08:44:33;;;;;;;8.35;2.10;;;21.50;99.90;;;;;;5036781;28;20025;-83
2022/06/13 08:47:07;;;;;;;5.85;1.98;;;21.60;99.90;;;;;;5036729;28;20029;-83
2022/06/13 08:49:52;;;;;;;4.68;2.00;;;21.60;99.90;;;;;;5054538;28;20472;-83
2022/06/13 08:52:18;;;;;;;;;;;21.60;99.90;;;;;;5054884;28;20520;-83
2022/06/13 08:54:49;;;;;;;5.45;1.58;;;21.70;99.90;;;;;;5036582;28;19911;-83
2022/06/13 08:57:16;;;;;;;4.97;1.90;;;21.70;99.90;;;;;;5054704;28;20017;-83
2022/06/13 08:59:49;;;;;;;4.00;1.80;;;21.70;99.90;;;;;;5054494;28;20108;-83
2022/06/13 09:02:23;;;;;;;6.97;1.80;;;21.80;99.90;;;;;;5054396;28;20037;-83
2022/06/13 09:04:52;;;;;;;6.05;1.67;;;21.80;99.90;;;;;;5054337;28;20025;-83
2022/06/13 09:07:27;;;;;;;4.07;1.50;;;21.80;99.90;;;;;;5036656;28;20476;-83
2022/06/13 09:10:04;;;;;;;5.60;1.77;;;21.80;99.90;;;;;;5036320;28;20529;-82
2022/06/13 09:13:01;;;;;;;5.88;1.63;;;21.80;99.90;;;;;;5036430;28;20533;-82
2022/06/13 09:15:43;;;;;;;6.22;2.15;;;21.90;99.90;;;;;;5036214;28;20021;-82
2022/06/13 09:18:41;;;;;;;4.63;1.42;;;21.90;99.90;;;;;;5036252;28;20387;-83
2022/06/13 09:21:26;;;;;;;3.83;1.63;;;21.90;99.90;;;;;;5054342;28;20028;-83
2022/06/13 09:24:06;;;;;;;5.07;1.65;;;22.00;99.90;;;;;;5036213;28;20021;-83
2022/06/13 09:26:40;;;;;;;6.35;1.38;;;22.00;99.80;;;;;;5036071;28;20459;-82
2022/06/13 09:29:43;;;;;;;5.63;1.75;;;22.00;99.90;;;;;;5054205;28;20056;-82
2022/06/13 09:32:17;;;;;;;5.07;1.85;;;22.00;99.60;;;;;;5053870;28;20476;-83
2022/06/13 09:34:48;;;;;;;5.85;1.60;;;22.00;99.90;;;;;;5036032;28;20025;-83
2022/06/13 09:37:16;;;;;;;3.63;1.27;;;22.10;99.40;;;;;;4994142;28;1140300;-85
2022/06/13 09:39:42;;;;;;;5.60;1.60;;;22.10;99.90;;;;;;5017131;28;20477;-85
2022/06/13 09:42:07;;;;;;;5.57;1.55;;;22.10;99.70;;;;;;5016969;28;20124;-86
2022/06/13 09:44:52;;;;;;;6.25;1.55;;;22.10;99.80;;;;;;5035000;28;20480;-86
2022/06/13 09:47:47;;;;;;;8.05;2.28;;;22.10;99.50;;;;;;5016978;28;20484;-85
2022/06/13 09:50:31;;;;;;;;;;;22.10;99.80;;;;;;5000331;28;20496;-85
2022/06/13 09:53:23;;;;;;;4.50;1.40;;;22.10;99.80;;;;;;5034381;28;19905;-86
2022/06/13 09:55:53;;;;;;;4.05;1.60;;;22.20;99.60;;;;;;5034874;28;20436;-85
2022/06/13 09:58:56;;;;;;;4.55;1.85;;;22.20;99.70;;;;;;5034834;28;20021;-85
2022/06/13 10:01:40;;;;;;;5.20;1.73;;;22.20;99.40;;;;;;5016651;28;20026;-85
2022/06/13 10:04:21;;;;;;;4.43;1.48;;;22.20;99.20;;;;;;5017009;28;20056;-85
2022/06/13 10:06:55;;;;;;;4.07;1.40;;;22.20;99.40;;;;;;5034356;28;20025;-86
2022/06/13 10:09:53;;;;;;;4.40;1.77;;;22.20;99.70;;;;;;5016667;28;20072;-86
2022/06/13 10:12:47;;;;;;;3.45;1.42;;;22.20;99.20;;;;;;5029278;28;20034;-85
2022/06/13 10:15:51;;;;;;;5.93;1.70;;;22.20;99.00;;;;;;5016511;28;20114;-86
2022/06/13 10:18:35;;;;;;;3.83;1.42;;;22.20;99.10;;;;;;5018676;28;20112;-85
2022/06/13 10:21:10;;;;;;;;;;;22.20;98.90;;;;;;5016775;28;20037;-85
2022/06/13 10:23:47;;;;;;;5.28;1.58;;;22.20;98.90;;;;;;5034340;28;19915;-85
2022/06/13 10:26:31;;;;;;;2.95;1.48;;;22.20;99.00;;;;;;5016283;28;20132;-85
2022/06/13 10:29:28;;;;;;;5.55;1.80;;;22.20;98.90;;;;;;5033970;28;20469;-85
2022/06/13 10:32:06;;;;;;;5.00;1.88;;;22.20;98.60;;;;;;4948429;28;20046;-86
2022/06/13 10:35:07;;;;;;;5.57;1.45;;;22.20;98.70;;;;;;5016126;28;20022;-85
2022/06/13 10:37:44;;;;;;;4.93;1.58;;;22.20;98.80;;;;;;5033626;28;20037;-86
2022/06/13 10:40:10;;;;;;;3.47;1.40;;;22.30;98.80;;;;;;5033769;28;20481;-85
2022/06/13 10:42:37;;;;;;;3.63;1.60;;;22.30;98.50;;;;;;5015982;28;20384;-86
2022/06/13 10:45:05;;;;;;;3.28;1.50;;;22.30;98.60;;;;;;5016023;28;20119;-85
2022/06/13 10:47:39;;;;;;;4.30;1.48;;;22.30;98.30;;;;;;5015852;28;20029;-85
2022/06/13 10:50:07;;;;;;;;;;;22.30;98.40;;;;;;5016399;28;20026;-86
2022/06/13 10:52:39;;;;;;;3.50;1.50;;;22.30;98.50;;;;;;5015806;28;19954;-85
2022/06/13 10:55:08;;;;;;;3.28;1.20;;;22.30;98.30;;;;;;5033870;28;20030;-86
2022/06/13 10:57:58;;;;;;;4.60;1.35;;;22.30;98.30;;;;;;5016046;28;20025;-86
2022/06/13 11:00:26;;;;;;;3.17;1.17;;;22.40;98.20;;;;;;5015706;28;20028;-86
2022/06/13 11:03:08;;;;;;;2.63;1.40;;;22.40;98.30;;;;;;5033481;28;20037;-86
2022/06/13 11:05:52;;;;;;;3.30;1.48;;;22.50;98.10;;;;;;5015696;28;20033;-86
2022/06/13 11:08:18;;;;;;;2.45;1.20;;;22.50;98.20;;;;;;5033423;28;20033;-86
2022/06/13 11:11:04;;;;;;;4.07;1.35;;;22.50;98.20;;;;;;5033240;28;20032;-86
2022/06/13 11:13:36;;;;;;;4.50;1.40;;;22.50;97.90;;;;;;5015541;28;20028;-86
2022/06/13 11:25:00;;;;;;;2.65;1.15;;;22.50;97.80;;;;;;5033818;28;20388;-86
2022/06/13 11:27:40;;;;;;;3.92;1.40;;;22.60;97.80;;;;;;5015572;28;20044;-86
2022/06/13 11:30:27;;;;;;;4.57;1.38;;;22.60;98.00;;;;;;5015478;28;20029;-85
2022/06/13 11:33:16;;;;;;;3.20;1.25;;;22.60;97.90;;;;;;5033124;28;20035;-86
2022/06/13 11:35:49;;;;;;;3.20;1.15;;;22.60;97.50;;;;;;5033158;28;20072;-85
2022/06/13 11:38:32;;;;;;;2.92;1.20;;;22.60;97.70;;;;;;5025571;28;20411;-85
2022/06/13 11:41:04;;;;;;;3.13;1.30;;;22.60;97.60;;;;;;5035150;28;20025;-85
2022/06/13 11:44:00;;;;;;;3.50;1.40;;;22.60;97.50;;;;;;5052975;28;20021;-86
2022/06/13 11:46:38;;;;;;;3.97;1.60;;;22.60;97.50;;;;;;5033803;28;20025;-85
2022/06/13 11:49:15;;;;;;;2.67;1.20;;;22.60;97.50;;;;;;5035041;28;20021;-85
2022/06/13 11:52:02;;;;;;;3.00;1.38;;;22.60;97.40;;;;;;5052746;28;20101;-85
2022/06/13 11:54:28;;;;;;;5.28;1.20;;;22.60;97.30;;;;;;5053138;28;20025;-86
2022/06/13 11:57:15;;;;;;;4.88;1.40;;;22.60;97.50;;;;;;5035002;28;20028;-86
2022/06/13 11:59:50;;;;;;;3.92;1.20;;;22.60;97.40;;;;;;5052735;28;20132;-85
2022/06/13 12:02:36;;;;;;;2.80;1.30;;;22.60;97.10;;;;;;5034937;28;20029;-85
2022/06/13 12:05:11;;;;;;;2.75;1.30;;;22.70;97.40;;;;;;5021173;28;20131;-86
2022/06/13 12:07:36;;;;;;;5.95;1.27;;;22.70;97.10;;;;;;5034887;28;20075;-85
2022/06/13 12:10:02;;;;;;;4.05;1.10;;;22.70;97.00;;;;;;5052713;28;20423;-85
2022/06/13 12:12:44;;;;;;;4.00;1.38;;;22.70;96.80;;;;;;5034689;28;20079;-85
2022/06/13 12:15:15;;;;;;;3.15;1.20;;;22.70;96.90;;;;;;5036767;28;20025;-85
2022/06/13 12:18:08;;;;;;;3.35;1.23;;;22.70;97.10;;;;;;5038516;28;20476;-86
2022/06/13 12:20:46;;;;;;;5.63;1.45;;;22.70;96.90;;;;;;5056274;28;20051;-85
2022/06/13 12:23:18;;;;;;;5.18;1.30;;;22.70;97.00;;;;;;5038336;28;20036;-85
2022/06/13 12:25:48;;;;;;;2.58;1.17;;;22.70;97.00;;;;;;5038346;28;20033;-86
2022/06/13 12:28:25;;;;;;;2.92;1.00;;;22.70;97.00;;;;;;5038289;28;20025;-85
2022/06/13 12:31:13;;;;;;;2.47;1.10;;;22.80;96.80;;;;;;5056038;28;20028;-85
2022/06/13 12:33:50;;;;;;;1.85;1.00;;;22.80;96.80;;;;;;5038187;28;20427;-86
2022/06/13 12:36:24;;;;;;;3.03;1.20;;;22.90;96.70;;;;;;5038147;28;20480;-86
2022/06/13 12:39:35;;;;;;;5.00;1.20;;;22.90;96.70;;;;;;5037925;28;20049;-86
2022/06/13 12:42:19;;;;;;;4.60;1.20;;;22.90;96.60;;;;;;5051805;28;20385;-85
2022/06/13 12:45:22;;;;;;;2.58;1.17;;;23.00;96.20;;;;;;5038016;28;20025;-86
2022/06/13 12:48:23;;;;;;;4.25;1.17;;;23.00;96.10;;;;;;5037872;28;20143;-85
2022/06/13 12:51:28;;;;;;;2.28;1.10;;;23.00;95.90;;;;;;5055707;28;20484;-86
2022/06/13 12:54:06;;;;;;;2.80;1.30;;;23.10;96.00;;;;;;5037852;28;20541;-85
2022/06/13 12:56:47;;;;;;;4.63;1.30;;;23.10;96.10;;;;;;5055956;28;20021;-86
2022/06/13 12:59:24;;;;;;;2.40;0.93;;;23.20;95.90;;;;;;5037718;28;20074;-86
2022/06/13 13:02:30;;;;;;;2.70;1.10;;;23.20;95.80;;;;;;5037663;28;20027;-86
2022/06/13 13:05:07;;;;;;;3.65;1.08;;;23.30;95.50;;;;;;5037547;28;20071;-86
2022/06/13 13:07:59;;;;;;;1.77;0.90;;;23.50;95.30;;;;;;5055437;28;20144;-86
2022/06/13 13:10:52;;;;;;;3.20;1.48;;;23.60;95.20;;;;;;5037929;28;20025;-86
2022/06/13 13:13:39;;;;;;;4.05;1.17;;;23.70;95.10;;;;;;5037333;28;20029;-85
2022/06/13 13:16:10;;;;;;;2.45;1.05;;;23.70;95.20;;;;;;5037316;28;20028;-86
2022/06/13 13:18:36;;;;;;;2.67;1.45;;;23.60;95.00;;;;;;5037313;28;20017;-86
2022/06/13 13:21:24;;;;;;;1.88;0.93;;;23.60;95.00;;;;;;5037191;28;20129;-86
2022/06/13 13:23:59;;;;;;;2.72;0.90;;;23.60;95.00;;;;;;5055119;28;20021;-86
2022/06/13 13:26:41;;;;;;;2.50;1.20;;;23.80;95.10;;;;;;5054167;28;20029;-86
2022/06/13 13:29:33;;;;;;;2.28;0.90;;;23.90;94.80;;;;;;5037139;28;20499;-86
2022/06/13 13:32:12;;;;;;;4.13;1.10;;;24.00;94.70;;;;;;5036942;28;20123;-87
2022/06/13 13:34:38;;;;;;;4.80;1.05;;;23.90;94.70;;;;;;5054863;28;20028;-87
2022/06/13 13:37:22;;;;;;;2.08;1.08;;;24.10;94.40;;;;;;5036276;28;20383;-86
2022/06/13 13:40:06;;;;;;;4.80;0.98;;;24.20;94.20;;;;;;5017454;28;20087;-87
2022/06/13 13:43:07;;;;;;;3.08;1.10;;;24.40;94.10;;;;;;5034935;28;20476;-87
2022/06/13 13:45:48;;;;;;;2.30;1.08;;;24.50;93.80;;;;;;5017128;28;20037;-86
2022/06/13 13:48:53;;;;;;;1.75;0.90;;;24.60;93.90;;;;;;5017303;28;20488;-87
2022/06/13 13:51:25;;;;;;;2.10;0.90;;;24.70;93.40;;;;;;5016772;28;20026;-86